»·PEaware :: N636EV KFAR-KSDF

N636EV :: KFAR-KSDF

FLIGHT INFORMATION

Flight Status: Arrived
Operator: Privately registered:
United States
More flights under this callsign
Pilot: Drew L. (13237)
Aircraft: CESSNA 172 SKYHAWK
(C172)
More flights by this aircraft type
Origin: KFAR Hector Intl
United States
Destination: KSDF Louisville Intl-Standiford
United States
More flights between these airports :: More routes between these airports
Route:
File this flight plan on PilotEdge
Remarks:
Altitude:
(Current/Filed)
8,500ft
Speed:
(Current/Filed)
440kts
Departed: 18-Apr-17 03:28 PM
Arrived: 18-Apr-17 04:49 PM
Distance/Time
Traveled:
716nm/1:21
Distance/Time
To Go:
Arrived

Flight Plot

Page will automatically refresh every two minutes.

Flight plan parsing failed; only flown route is shown


Map Options




Map Legend


Flown Route
Filed Route
Departure Airport
Arrival Airport
Navaid (VOR, NDB)
Fix

Horizontal Profiles

Position Reports

Time Latitude Longitude Heading Altitude Ground
Speed
18-Apr-17 14:51 38.147417 -89.701416 92 542ft 0kts
18-Apr-17 14:52 38.147417 -89.701416 92 542ft 0kts
18-Apr-17 14:53 38.147417 -89.701416 92 542ft 0kts
18-Apr-17 14:54 38.147417 -89.701416 92 542ft 0kts
18-Apr-17 14:55 38.147417 -89.701416 92 542ft 0kts
18-Apr-17 14:56 38.147417 -89.701416 92 542ft 0kts
18-Apr-17 14:57 38.147417 -89.701416 92 542ft 0kts
18-Apr-17 14:58 38.147402 -89.699977 86 542ft 16kts
18-Apr-17 14:59 38.147415 -89.699039 90 542ft 0kts
18-Apr-17 15:00 38.147415 -89.699039 90 542ft 0kts
18-Apr-17 15:01 38.147415 -89.699039 90 542ft 0kts
18-Apr-17 15:02 38.147415 -89.699039 90 542ft 0kts
18-Apr-17 15:03 38.147415 -89.699039 90 542ft 0kts
18-Apr-17 15:04 38.147415 -89.699039 90 542ft 0kts
18-Apr-17 15:05 38.147415 -89.699039 90 542ft 0kts
18-Apr-17 15:06 38.147415 -89.699039 90 542ft 0kts
18-Apr-17 15:07 38.147415 -89.699039 90 542ft 0kts
18-Apr-17 15:08 38.147415 -89.699039 90 542ft 0kts
18-Apr-17 15:09 38.147415 -89.699039 90 542ft 0kts
18-Apr-17 15:10 38.147415 -89.699039 90 542ft 0kts
18-Apr-17 15:11 38.147415 -89.699039 90 542ft 0kts
18-Apr-17 15:12 38.147415 -89.699039 90 542ft 0kts
18-Apr-17 15:13 38.147415 -89.699039 90 542ft 0kts
18-Apr-17 15:14 38.147415 -89.699039 90 542ft 0kts
18-Apr-17 15:15 38.147415 -89.699039 90 542ft 0kts
18-Apr-17 15:16 38.147415 -89.699039 90 542ft 0kts
18-Apr-17 15:17 38.147415 -89.699039 90 542ft 0kts
18-Apr-17 15:18 38.147415 -89.699039 90 542ft 0kts
18-Apr-17 15:19 38.147415 -89.699039 90 542ft 0kts
18-Apr-17 15:20 38.147415 -89.699039 90 542ft 0kts
18-Apr-17 15:21 38.147415 -89.699039 90 542ft 0kts
18-Apr-17 15:22 38.147415 -89.699039 90 542ft 0kts
18-Apr-17 15:23 38.147415 -89.699039 90 542ft 0kts
18-Apr-17 15:24 38.147415 -89.699039 90 542ft 0kts
18-Apr-17 15:25 38.147415 -89.699039 90 542ft 0kts
18-Apr-17 15:26 38.147415 -89.699039 90 542ft 0kts
18-Apr-17 15:27 38.147415 -89.699039 90 542ft 0kts
18-Apr-17 15:28 38.147415 -89.699039 90 542ft 0kts
18-Apr-17 15:29 38.147415 -89.699039 90 542ft 0kts
18-Apr-17 15:30 38.147694 -89.684875 94 878ft 74kts
18-Apr-17 15:31 38.148517 -89.652808 92 1615ft 99kts
18-Apr-17 15:32 38.149398 -89.616746 92 2328ft 103kts
18-Apr-17 15:33 38.150239 -89.580543 92 3099ft 102kts
18-Apr-17 15:34 38.151156 -89.544834 96 3802ft 103kts
18-Apr-17 15:35 38.151845 -89.506255 92 4588ft 114kts
18-Apr-17 15:36 38.152751 -89.465514 91 5306ft 116kts
18-Apr-17 15:37 38.153635 -89.424640 91 6020ft 115kts
18-Apr-17 15:38 38.154478 -89.384560 91 6728ft 112kts
18-Apr-17 15:39 38.155287 -89.345676 91 7433ft 108kts
18-Apr-17 15:40 38.156046 -89.308435 90 8052ft 108kts
18-Apr-17 15:40 38.156720 -89.274094 90 8398ft 123kts
18-Apr-17 15:42 38.157753 -89.221139 89 8863ft 131kts
18-Apr-17 15:43 38.158657 -89.174421 89 9254ft 133kts
18-Apr-17 15:43 38.159400 -89.135251 89 9558ft 135kts
18-Apr-17 15:45 38.160510 -89.075071 89 9574ft 152kts
18-Apr-17 15:45 38.161323 -89.030061 89 9574ft 153kts
18-Apr-17 15:46 38.162281 -88.975746 89 9574ft 154kts
18-Apr-17 15:48 38.163370 -88.912280 89 9574ft 154kts
18-Apr-17 15:48 38.164122 -88.867164 89 9575ft 154kts
18-Apr-17 15:50 38.165153 -88.803647 89 9575ft 154kts
18-Apr-17 15:50 38.165870 -88.758180 89 9575ft 154kts
18-Apr-17 15:51 38.166706 -88.703654 89 9576ft 154kts
18-Apr-17 15:52 38.167519 -88.648930 89 9576ft 154kts
18-Apr-17 15:53 38.168306 -88.594277 89 9576ft 154kts
18-Apr-17 15:54 38.169067 -88.539679 89 9577ft 155kts
18-Apr-17 15:55 38.169813 -88.485037 89 9577ft 155kts
18-Apr-17 15:56 38.170516 -88.430261 89 9578ft 155kts
18-Apr-17 15:57 38.171201 -88.375796 89 9602ft 154kts
18-Apr-17 15:58 38.171850 -88.322347 89 9599ft 154kts
18-Apr-17 15:59 38.172477 -88.268069 89 9599ft 153kts
18-Apr-17 16:00 38.173082 -88.213769 89 9599ft 153kts
18-Apr-17 16:01 38.173665 -88.159378 89 9600ft 154kts
18-Apr-17 16:02 38.174218 -88.105087 89 9600ft 154kts
18-Apr-17 16:03 38.174747 -88.050688 89 9601ft 154kts
18-Apr-17 16:04 38.175253 -87.996461 89 9582ft 155kts
18-Apr-17 16:05 38.175737 -87.942062 89 9601ft 154kts
18-Apr-17 16:06 38.176192 -87.887999 89 9602ft 154kts
18-Apr-17 16:07 38.176630 -87.833303 89 9602ft 154kts
18-Apr-17 16:08 38.177043 -87.778734 89 9602ft 154kts
18-Apr-17 16:09 38.177425 -87.724137 89 9603ft 154kts
18-Apr-17 16:10 38.177781 -87.669543 89 9603ft 154kts
18-Apr-17 16:11 38.178117 -87.614870 89 9603ft 154kts
18-Apr-17 16:12 38.178424 -87.560180 89 9604ft 155kts
18-Apr-17 16:13 38.178706 -87.505500 89 9604ft 155kts
18-Apr-17 16:14 38.178965 -87.450633 89 9604ft 155kts
18-Apr-17 16:15 38.179197 -87.395963 89 9605ft 155kts
18-Apr-17 16:16 38.179405 -87.341820 90 9601ft 155kts
18-Apr-17 16:17 38.179578 -87.287287 90 9599ft 154kts
18-Apr-17 16:18 38.179727 -87.233073 90 9599ft 153kts
18-Apr-17 16:19 38.179855 -87.178634 90 9600ft 154kts
18-Apr-17 16:20 38.179957 -87.124179 90 9600ft 154kts
18-Apr-17 16:21 38.180034 -87.069810 90 9600ft 154kts
18-Apr-17 16:22 38.180089 -87.015461 90 9601ft 154kts
18-Apr-17 16:23 38.180119 -86.960990 90 9601ft 154kts
18-Apr-17 16:24 38.180121 -86.906398 90 9601ft 154kts
18-Apr-17 16:25 38.180101 -86.851796 90 9602ft 154kts
18-Apr-17 16:26 38.180058 -86.797224 90 9602ft 154kts
18-Apr-17 16:27 38.179989 -86.742855 90 9603ft 154kts
18-Apr-17 16:28 38.179887 -86.688113 90 9603ft 154kts
18-Apr-17 16:29 38.179760 -86.633587 90 9603ft 155kts
18-Apr-17 16:30 38.179612 -86.578755 90 9604ft 155kts
18-Apr-17 16:31 38.179434 -86.524362 90 9604ft 155kts
18-Apr-17 16:32 38.179234 -86.469599 90 9604ft 155kts
18-Apr-17 16:33 38.179010 -86.414813 90 9605ft 155kts
18-Apr-17 16:34 38.178755 -86.360041 90 9605ft 155kts
18-Apr-17 16:35 38.178508 -86.313119 91 9599ft 154kts
18-Apr-17 16:36 38.178208 -86.258769 91 9599ft 154kts
18-Apr-17 16:37 38.177887 -86.204367 91 9600ft 154kts
18-Apr-17 16:38 38.177543 -86.150441 91 9627ft 153kts
18-Apr-17 16:39 38.177173 -86.096331 91 9627ft 154kts
18-Apr-17 16:40 38.176777 -86.041928 91 9628ft 154kts
18-Apr-17 16:41 38.176353 -85.987331 91 9628ft 154kts
18-Apr-17 16:42 38.175926 -85.934761 89 8947ft 136kts
18-Apr-17 16:43 38.184829 -85.893839 70 8221ft 104kts
18-Apr-17 16:44 38.194032 -85.858099 48 7016ft 105kts
18-Apr-17 16:45 38.203784 -85.826029 107 5823ft 101kts
18-Apr-17 16:46 38.210326 -85.791546 66 4655ft 103kts
18-Apr-17 16:47 38.218855 -85.757818 110 3520ft 94kts
18-Apr-17 16:48 38.209659 -85.739552 150 1883ft 93kts
18-Apr-17 16:49 38.182972 -85.729887 163 508ft 71kts
18-Apr-17 16:50 38.179043 -85.726900 347 504ft 13kts
18-Apr-17 16:51 38.181869 -85.727815 339 504ft 12kts
18-Apr-17 16:52 38.182220 -85.726992 166 504ft 0kts

Navigation Log

Ident Type
Flight plan parsing failed, navigation log unavailable